createdAt,value
2019-05-30T00:00:53.990Z,54.66
2019-05-30T00:02:04.534Z,54.34
2019-05-30T00:03:14.391Z,54.48
2019-05-30T00:05:34.426Z,54.54
2019-05-30T00:06:44.462Z,54.42
2019-05-30T00:07:54.484Z,54.31
2019-05-30T00:09:04.708Z,54.53
2019-05-30T00:10:15.727Z,54.53
2019-05-30T00:11:25.683Z,54.76
2019-05-30T00:12:35.709Z,54.55
2019-05-30T00:13:45.728Z,54.49
2019-05-30T00:14:56.899Z,55.24
2019-05-30T00:16:07.002Z,54.99
2019-05-30T00:17:18.049Z,55.09
2019-05-30T00:18:28.084Z,55.07
2019-05-30T00:19:38.109Z,54.82
2019-05-30T00:20:49.255Z,54.9
2019-05-30T00:21:59.301Z,55.24
2019-05-30T00:23:11.333Z,54.93
2019-05-30T00:24:21.580Z,55.27
2019-05-30T00:25:32.718Z,55.49
2019-05-30T00:26:42.756Z,55.64
2019-05-30T00:27:52.812Z,55.56
2019-05-30T00:29:02.812Z,56.31
2019-05-30T00:30:24.939Z,55.58
2019-05-30T00:31:22.863Z,55.71
2019-05-30T00:32:32.887Z,55.96
2019-05-30T00:33:42.915Z,55.75
2019-05-30T00:34:54.069Z,56.24
2019-05-30T00:36:06.027Z,56.02
2019-05-30T00:37:15.243Z,57
2019-05-30T00:38:25.261Z,56.68
2019-05-30T00:39:35.305Z,56.04
2019-05-30T00:40:45.343Z,57.07
2019-05-30T00:41:56.113Z,57.18
2019-05-30T00:43:06.388Z,56.54
2019-05-30T00:44:15.544Z,56.66
2019-05-30T00:45:25.429Z,56.98
2019-05-30T00:46:35.516Z,57.42
2019-05-30T00:47:45.518Z,56.93
2019-05-30T00:48:56.697Z,57.88
2019-05-30T00:50:06.837Z,57.15
2019-05-30T00:51:16.698Z,56.79
2019-05-30T00:52:27.854Z,57.26
2019-05-30T00:53:37.930Z,57.4
2019-05-30T00:54:47.910Z,57.13
2019-05-30T00:55:58.637Z,57.16
2019-05-30T00:57:07.941Z,57.85
2019-05-30T00:58:17.959Z,57.53
2019-05-30T00:59:29.179Z,57.73
2019-05-30T01:00:44.418Z,57.78
2019-05-30T01:01:49.177Z,57.82
2019-05-30T01:03:02.818Z,58.33
2019-05-30T01:04:09.226Z,57.44
2019-05-30T01:05:19.251Z,57.43
2019-05-30T01:06:29.312Z,58.11
2019-05-30T01:07:39.364Z,57.79
2019-05-30T01:08:49.339Z,57.36
2019-05-30T01:09:59.371Z,57.98
2019-05-30T01:11:09.378Z,57.7
2019-05-30T01:12:19.434Z,57.64
2019-05-30T01:13:29.544Z,57.91
2019-05-30T01:14:39.469Z,58.1
2019-05-30T01:15:50.488Z,58.6
2019-05-30T01:17:01.166Z,58.07
2019-05-30T01:18:10.538Z,58.1
2019-05-30T01:19:20.559Z,59.1
2019-05-30T01:20:30.594Z,59.57
2019-05-30T01:21:40.675Z,58.87
2019-05-30T01:22:50.637Z,59.22
2019-05-30T01:24:01.413Z,59.01
2019-05-30T01:25:11.971Z,59.78
2019-05-30T01:26:21.863Z,59.26
2019-05-30T01:27:31.934Z,59.78
2019-05-30T01:28:43.007Z,59.36
2019-05-30T01:29:53.044Z,59.01
2019-05-30T01:32:14.231Z,59.25
2019-05-30T01:33:24.271Z,59.26
2019-05-30T01:34:34.303Z,60.15
2019-05-30T01:35:45.454Z,59.72
2019-05-30T01:36:55.458Z,59.68
2019-05-30T01:38:06.164Z,60.24
2019-05-30T01:39:15.512Z,59.96
2019-05-30T01:40:25.533Z,60
2019-05-30T01:41:35.576Z,60.1
2019-05-30T01:42:45.595Z,60.49
2019-05-30T01:43:55.611Z,59.9
2019-05-30T01:45:06.320Z,60.17
2019-05-30T01:46:15.756Z,59.86
2019-05-30T01:47:26.837Z,60.63
2019-05-30T01:48:36.843Z,60.66
2019-05-30T01:49:46.869Z,60.66
2019-05-30T01:50:58.393Z,60.54
2019-05-30T01:52:08.898Z,60.11
2019-05-30T01:53:18.095Z,60.18
2019-05-30T01:54:28.119Z,60.14
2019-05-30T01:55:38.140Z,60.85
2019-05-30T01:56:48.171Z,60.64
2019-05-30T01:57:58.870Z,60.62
2019-05-30T01:59:09.129Z,60.88
2019-05-30T02:00:21.775Z,60.58
2019-05-30T02:01:30.505Z,60.45
2019-05-30T02:02:40.716Z,60.92
2019-05-30T02:03:51.702Z,60.76
2019-05-30T02:05:03.114Z,60.88
2019-05-30T02:06:12.888Z,60.3
2019-05-30T02:07:22.912Z,60.97
2019-05-30T02:08:32.909Z,60.54
2019-05-30T02:09:42.938Z,61.16
2019-05-30T02:10:52.954Z,61.42
2019-05-30T02:12:03.754Z,61.37
2019-05-30T02:13:13.013Z,60.88
2019-05-30T02:14:24.160Z,60.76
2019-05-30T02:15:34.179Z,61.54
2019-05-30T02:16:45.329Z,61.08
2019-05-30T02:17:56.469Z,61.31
2019-05-30T02:19:08.017Z,61.4
2019-05-30T02:20:17.659Z,61.32
2019-05-30T02:21:27.707Z,61.63
2019-05-30T02:23:47.727Z,60.52
2019-05-30T02:24:57.987Z,61.02
2019-05-30T02:26:08.347Z,61.05
2019-05-30T02:27:17.797Z,61.15
2019-05-30T02:28:27.842Z,61.22
2019-05-30T02:29:37.864Z,61.27
2019-05-30T02:30:47.890Z,60.37
2019-05-30T02:31:57.927Z,60.62
2019-05-30T02:33:12.605Z,60.47
2019-05-30T02:34:17.973Z,60.72
2019-05-30T02:35:28.063Z,61.17
2019-05-30T02:36:38.073Z,61.86
2019-05-30T02:37:48.074Z,60.63
2019-05-30T02:39:00.887Z,60.79
2019-05-30T02:40:15.067Z,60.13
2019-05-30T02:41:20.380Z,61.34
2019-05-30T02:42:30.399Z,61.42
2019-05-30T02:43:40.430Z,61.72
2019-05-30T02:44:50.535Z,62.19
2019-05-30T02:46:01.138Z,62.08
2019-05-30T02:47:11.730Z,61.65
2019-05-30T02:48:20.542Z,61.63
2019-05-30T02:49:30.578Z,60.81
2019-05-30T02:50:40.589Z,61.19
2019-05-30T02:51:51.731Z,61.51
2019-05-30T02:53:05.501Z,61.05
2019-05-30T02:54:13.522Z,60.18
2019-05-30T02:55:23.015Z,61.33
2019-05-30T02:56:32.954Z,60.41
2019-05-30T02:57:43.033Z,61.22
2019-05-30T02:58:53.034Z,60.81
2019-05-30T03:00:08.115Z,61.41
2019-05-30T03:01:14.855Z,60.44
2019-05-30T03:02:24.239Z,60.12
2019-05-30T03:03:34.250Z,60.92
2019-05-30T03:04:44.275Z,60.68
2019-05-30T03:05:54.310Z,60.36
2019-05-30T03:07:08.475Z,60.64
2019-05-30T03:08:14.893Z,60.48
2019-05-30T03:09:24.389Z,60.44
2019-05-30T03:10:34.419Z,61.16
2019-05-30T03:11:44.466Z,60.48
2019-05-30T03:12:55.584Z,60.94
2019-05-30T03:14:09.316Z,60.75
2019-05-30T03:15:16.177Z,58.97
2019-05-30T03:16:26.785Z,58.2
2019-05-30T03:17:35.722Z,57.64
2019-05-30T03:18:45.769Z,57.23
2019-05-30T03:19:55.816Z,57.77
2019-05-30T03:21:10.458Z,57.02
2019-05-30T03:22:15.819Z,57.17
2019-05-30T03:23:26.964Z,56.53
2019-05-30T03:24:38.133Z,57.49
2019-05-30T03:25:48.162Z,57.73
2019-05-30T03:26:59.306Z,57.41
2019-05-30T03:28:13.583Z,56.39
2019-05-30T03:29:19.360Z,55.82
2019-05-30T03:30:30.167Z,55.13
2019-05-30T03:31:39.461Z,55.48
2019-05-30T03:33:59.521Z,53.83
2019-05-30T03:35:28.151Z,53.62
2019-05-30T03:36:31.515Z,53.78
2019-05-30T03:37:30.918Z,54.03
2019-05-30T03:38:39.638Z,53.72
2019-05-30T03:40:59.701Z,52.39
2019-05-30T03:42:13.275Z,52.23
2019-05-30T03:43:19.821Z,51.91
2019-05-30T03:44:29.829Z,51.56
2019-05-30T03:45:39.908Z,51.48
2019-05-30T03:46:49.909Z,51.95
2019-05-30T03:47:59.956Z,52.18
2019-05-30T03:49:12.752Z,52.12
2019-05-30T03:50:20.083Z,52.92
2019-05-30T03:51:30.119Z,51.16
2019-05-30T03:52:41.282Z,49.07
2019-05-30T03:53:51.373Z,48.1
2019-05-30T03:55:01.438Z,47.2
2019-05-30T03:56:14.131Z,46.13
2019-05-30T03:57:22.625Z,45.04
2019-05-30T03:58:33.812Z,46.09
2019-05-30T03:59:43.886Z,45.75
2019-05-30T04:00:53.949Z,44.9
2019-05-30T04:02:03.982Z,44.51
2019-05-30T04:03:15.798Z,44.71
2019-05-30T04:04:24.146Z,46.3
2019-05-30T04:05:34.213Z,48
2019-05-30T04:06:45.503Z,50.52
2019-05-30T04:07:55.502Z,49.57
2019-05-30T04:09:09.069Z,46.58
2019-05-30T04:10:15.883Z,43.39
2019-05-30T04:11:25.733Z,42.84
2019-05-30T04:12:35.885Z,42.54
2019-05-30T04:13:45.926Z,42.41
2019-05-30T04:14:56.025Z,42.63
2019-05-30T04:16:08.581Z,41.91
2019-05-30T04:17:19.769Z,40.93
2019-05-30T04:18:27.469Z,40.87
2019-05-30T04:19:37.636Z,40.05
2019-05-30T04:20:48.822Z,41.43
2019-05-30T04:22:00.012Z,39.9
2019-05-30T04:23:13.050Z,39.49
2019-05-30T04:24:21.371Z,40.31
2019-05-30T04:25:31.587Z,39.52
2019-05-30T04:26:41.633Z,39.05
2019-05-30T04:27:51.740Z,39.19
2019-05-30T04:29:01.897Z,38.11
2019-05-30T04:30:12.035Z,38.71
2019-05-30T04:31:22.209Z,38.25
2019-05-30T04:32:32.344Z,37.43
2019-05-30T04:33:43.564Z,37.92
2019-05-30T04:34:53.726Z,38.17
2019-05-30T04:36:03.908Z,38.08
2019-05-30T04:37:15.476Z,36.71
2019-05-30T04:38:24.183Z,37.05
2019-05-30T04:39:34.356Z,37.26
2019-05-30T04:40:44.532Z,38.11
2019-05-30T04:41:55.848Z,37.53
2019-05-30T04:43:06.129Z,37.59
2019-05-30T04:44:18.067Z,36.26
2019-05-30T04:45:28.582Z,36.67
2019-05-30T04:46:37.681Z,37.76
2019-05-30T04:47:47.888Z,35.22
2019-05-30T04:48:59.158Z,34.54
2019-05-30T04:51:21.980Z,35.68
2019-05-30T04:52:29.753Z,34.62
2019-05-30T04:53:39.969Z,36.52
2019-05-30T04:54:50.254Z,35.54
2019-05-30T04:56:00.406Z,34.51
2019-05-30T04:57:12.574Z,35.04
2019-05-30T04:58:24.419Z,34.64
2019-05-30T04:59:32.165Z,33.76
2019-05-30T05:00:42.386Z,33.8
2019-05-30T05:01:52.611Z,33.97
2019-05-30T05:03:02.852Z,33
2019-05-30T05:04:15.012Z,33.14
2019-05-30T05:05:27.168Z,32.72
2019-05-30T05:06:33.634Z,34.05
2019-05-30T05:07:43.799Z,33.26
2019-05-30T05:08:54.033Z,33.27
2019-05-30T05:10:04.295Z,34.17
2019-05-30T05:11:20.440Z,32.46
2019-05-30T05:12:25.898Z,32.74
2019-05-30T05:13:36.207Z,32.84
2019-05-30T05:14:47.538Z,32.75
2019-05-30T05:15:57.815Z,32.26
2019-05-30T05:17:08.052Z,33.43
2019-05-30T05:18:19.423Z,32.24
2019-05-30T05:19:28.625Z,33.79
2019-05-30T05:20:38.903Z,33.27
2019-05-30T05:21:50.341Z,33.03
2019-05-30T05:23:00.543Z,32.87
2019-05-30T05:24:10.850Z,31.5
2019-05-30T05:25:21.562Z,32.41
2019-05-30T05:26:32.491Z,31.68
2019-05-30T05:27:42.779Z,30.41
2019-05-30T05:28:53.069Z,30.39
2019-05-30T05:30:04.631Z,30.64
2019-05-30T05:31:14.780Z,30.42
2019-05-30T05:32:25.067Z,31.52
2019-05-30T05:33:35.380Z,32.11
2019-05-30T05:34:45.655Z,32.7
2019-05-30T05:35:55.952Z,31.45
2019-05-30T05:37:06.328Z,30.75
2019-05-30T05:38:16.582Z,32.48
2019-05-30T05:39:26.863Z,31.82
2019-05-30T05:40:37.210Z,29.9
2019-05-30T05:41:47.536Z,30.93
2019-05-30T05:42:58.932Z,32.61
2019-05-30T05:44:09.240Z,31.87
2019-05-30T05:45:20.680Z,28.01
2019-05-30T05:46:30.996Z,28.97
2019-05-30T05:47:41.309Z,29.89
2019-05-30T05:48:51.665Z,31.56
2019-05-30T05:50:02.031Z,32.04
2019-05-30T05:51:12.289Z,28.89
2019-05-30T05:52:24.933Z,30.29
2019-05-30T05:53:34.137Z,28.58
2019-05-30T05:54:44.368Z,30.64
2019-05-30T05:55:54.775Z,30.86
2019-05-30T05:57:06.272Z,31.19
2019-05-30T05:58:19.199Z,30.55
2019-05-30T05:59:29.360Z,30.58
2019-05-30T06:00:38.337Z,29.98
2019-05-30T06:01:48.663Z,30.62
2019-05-30T06:03:00.105Z,26.03
2019-05-30T06:04:13.813Z,30.11
2019-05-30T06:05:20.837Z,30.3
2019-05-30T06:06:31.853Z,28.19
2019-05-30T06:07:41.472Z,25.87
2019-05-30T06:08:51.801Z,28.81
2019-05-30T06:10:02.197Z,30.53
2019-05-30T06:11:12.503Z,28.2
2019-05-30T06:12:23.940Z,26.1
2019-05-30T06:13:33.208Z,28.75
2019-05-30T06:14:43.575Z,26.76
2019-05-30T06:15:53.943Z,25.36
2019-05-30T06:17:04.284Z,30.57
2019-05-30T06:18:14.650Z,30.65
2019-05-30T06:19:25.497Z,29.84
2019-05-30T06:20:35.376Z,28.54
2019-05-30T06:21:54.703Z,27.86
2019-05-30T06:22:58.362Z,24.84
2019-05-30T06:24:08.768Z,27.17
2019-05-30T06:25:24.425Z,29.65
2019-05-30T06:26:29.489Z,28.11
2019-05-30T06:27:39.870Z,28.15
2019-05-30T06:28:50.231Z,27.81
2019-05-30T06:30:00.695Z,25.2
2019-05-30T06:31:12.150Z,25.91
2019-05-30T06:32:23.064Z,28.56
2019-05-30T06:33:34.015Z,26.24
2019-05-30T06:34:44.384Z,28.07
2019-05-30T06:35:55.889Z,28.3
2019-05-30T06:37:06.397Z,26.89
2019-05-30T06:38:16.668Z,25.07
2019-05-30T06:39:27.719Z,27.03
2019-05-30T06:40:37.537Z,25.4
2019-05-30T06:41:47.861Z,26.44
2019-05-30T06:42:58.275Z,25.49
2019-05-30T06:44:08.648Z,26.87
2019-05-30T06:45:23.993Z,25.74
2019-05-30T06:46:31.276Z,24.52
2019-05-30T06:47:40.962Z,26.13
2019-05-30T06:48:51.369Z,24.55
2019-05-30T06:50:01.770Z,24.92
2019-05-30T06:51:14.852Z,24.07
2019-05-30T06:52:25.005Z,25.53
2019-05-30T06:53:35.227Z,23.82
2019-05-30T06:54:45.634Z,23.58
2019-05-30T06:55:56.057Z,27.37
2019-05-30T06:57:07.630Z,23.25
2019-05-30T06:58:18.268Z,26.39
2019-05-30T06:59:29.421Z,26.02
2019-05-30T07:00:38.800Z,24.06
2019-05-30T07:01:52.362Z,23.9
2019-05-30T07:02:59.746Z,24.94
2019-05-30T07:04:10.716Z,22.66
2019-05-30T07:05:23.105Z,23.63
2019-05-30T07:06:33.049Z,23.45
2019-05-30T07:07:41.792Z,23.23
2019-05-30T07:08:52.866Z,24.35
2019-05-30T07:11:13.694Z,23.89
2019-05-30T07:12:27.500Z,24.4
2019-05-30T07:13:36.792Z,21.86
2019-05-30T07:14:47.189Z,22.28
2019-05-30T07:15:57.620Z,24.04
2019-05-30T07:17:08.038Z,21.88
2019-05-30T07:18:18.480Z,23.18
2019-05-30T07:19:29.623Z,23.81
2019-05-30T07:20:39.482Z,21.81
2019-05-30T07:21:49.768Z,20.85
2019-05-30T07:23:00.274Z,21.17
2019-05-30T07:24:10.657Z,21.95
2019-05-30T07:25:21.171Z,22.38
2019-05-30T07:26:31.983Z,21.67
2019-05-30T07:27:41.950Z,23
2019-05-30T07:28:53.679Z,22.98
2019-05-30T07:30:03.949Z,21.29
2019-05-30T07:31:14.491Z,22.55
2019-05-30T07:32:25.977Z,21.1
2019-05-30T07:33:36.438Z,20.81
2019-05-30T07:34:46.926Z,22
2019-05-30T07:35:57.290Z,21.7
2019-05-30T07:37:07.758Z,20.84
2019-05-30T07:39:35.298Z,22.48
2019-05-30T07:40:40.268Z,21.58
2019-05-30T07:42:06.709Z,20.86
2019-05-30T07:43:01.120Z,20.78
2019-05-30T07:44:12.733Z,20.95
2019-05-30T07:45:23.129Z,20.86
2019-05-30T07:46:33.601Z,19.71
2019-05-30T07:47:45.172Z,21.23
2019-05-30T07:48:56.985Z,20.58
2019-05-30T07:50:07.534Z,20.66
2019-05-30T07:51:18.778Z,21.18
2019-05-30T07:52:30.679Z,21.41
2019-05-30T07:53:39.779Z,21
2019-05-30T07:54:50.205Z,22.42
2019-05-30T07:56:00.618Z,22.69
2019-05-30T07:57:11.135Z,20.91
2019-05-30T07:58:21.572Z,20.36
2019-05-30T07:59:32.565Z,21.35
2019-05-30T08:00:42.488Z,20.94
2019-05-30T08:01:53.200Z,21.72
2019-05-30T08:03:03.366Z,22.7
2019-05-30T08:04:13.861Z,20.45
2019-05-30T08:05:25.179Z,21.71
2019-05-30T08:06:35.898Z,20.83
2019-05-30T08:07:46.337Z,20.76
2019-05-30T08:08:57.917Z,20.88
2019-05-30T08:10:08.367Z,21.44
2019-05-30T08:12:30.153Z,20.91
2019-05-30T08:13:39.741Z,20.54
2019-05-30T08:14:50.197Z,20.98
2019-05-30T08:16:00.673Z,22.51
2019-05-30T08:17:11.111Z,19.9
2019-05-30T08:18:21.581Z,19.91
2019-05-30T08:19:34.339Z,19.24
2019-05-30T08:20:42.469Z,20.53
2019-05-30T08:21:54.043Z,20.66
2019-05-30T08:23:05.663Z,21.43
2019-05-30T08:24:16.060Z,24.43
2019-05-30T08:25:26.542Z,20.91
2019-05-30T08:26:38.566Z,20.49
2019-05-30T08:27:48.501Z,20.99
2019-05-30T08:29:00.157Z,20.25
2019-05-30T08:31:21.941Z,18.98
2019-05-30T08:32:32.556Z,20.98
2019-05-30T08:33:42.786Z,20.07
2019-05-30T08:34:53.225Z,21.23
2019-05-30T08:36:06.062Z,19.31
2019-05-30T08:37:14.077Z,20.75
2019-05-30T08:38:24.536Z,20.91
2019-05-30T08:39:35.377Z,20.35
2019-05-30T08:40:45.347Z,21
2019-05-30T08:41:55.799Z,20.54
2019-05-30T08:43:07.429Z,21.12
2019-05-30T08:44:18.818Z,21
2019-05-30T08:45:29.638Z,20.07
2019-05-30T08:46:40.088Z,21.47
2019-05-30T08:47:50.067Z,21.67
2019-05-30T08:49:02.061Z,21.3
2019-05-30T08:50:12.008Z,20.66
2019-05-30T08:51:22.409Z,20.92
2019-05-30T08:52:32.777Z,19.91
2019-05-30T08:53:43.184Z,19.95
2019-05-30T08:54:53.578Z,19.68
2019-05-30T08:56:03.948Z,19.7
2019-05-30T08:57:14.322Z,19.51
2019-05-30T08:58:24.754Z,19.86
2019-05-30T08:59:35.104Z,21.33
2019-05-30T09:00:45.491Z,19.61
2019-05-30T09:01:57.050Z,19.49
2019-05-30T09:04:18.904Z,21.31
2019-05-30T09:05:29.231Z,20.99
2019-05-30T09:06:42.057Z,20.68
2019-05-30T09:07:51.181Z,22.51
2019-05-30T09:09:01.455Z,21.15
2019-05-30T09:10:11.810Z,21
2019-05-30T09:11:23.195Z,20.84
2019-05-30T09:12:33.526Z,20.29
2019-05-30T09:13:44.680Z,19.73
2019-05-30T09:14:54.260Z,21.02
2019-05-30T09:16:04.584Z,21.09
2019-05-30T09:17:14.997Z,21.15
2019-05-30T09:18:26.547Z,22.67
2019-05-30T09:19:39.467Z,22.91
2019-05-30T09:20:47.543Z,23.44
2019-05-30T09:21:58.432Z,22.72
2019-05-30T09:23:08.769Z,23.06
2019-05-30T09:24:20.255Z,23.93
2019-05-30T09:25:30.567Z,22.34
2019-05-30T09:26:47.391Z,21.3
2019-05-30T09:27:51.297Z,21.22
2019-05-30T09:29:03.989Z,20.48
2019-05-30T09:30:13.011Z,19.7
2019-05-30T09:31:23.326Z,20.74
2019-05-30T09:32:33.645Z,21.3
2019-05-30T09:33:45.067Z,19.77
2019-05-30T09:34:55.409Z,20.69
2019-05-30T09:36:14.023Z,21.01
2019-05-30T09:37:16.125Z,21.54
2019-05-30T09:38:26.331Z,21.31
2019-05-30T09:39:39.939Z,21.51
2019-05-30T09:40:48.066Z,21.48
2019-05-30T09:41:59.516Z,21.25
2019-05-30T09:43:09.818Z,22.66
2019-05-30T09:44:21.303Z,21.71
2019-05-30T09:45:31.602Z,22.25
2019-05-30T09:46:44.293Z,21.78
2019-05-30T09:47:53.304Z,21.42
2019-05-30T09:49:03.858Z,21.96
2019-05-30T09:50:13.880Z,20.6
2019-05-30T09:51:24.153Z,20.42
2019-05-30T09:52:34.445Z,20.53
2019-05-30T09:53:46.070Z,21.9
2019-05-30T09:54:57.204Z,21.92
2019-05-30T09:56:06.427Z,22.26
2019-05-30T09:57:16.636Z,21.3
2019-05-30T09:58:26.906Z,21.37
2019-05-30T09:59:38.296Z,22.07
2019-05-30T10:00:50.456Z,21.51
2019-05-30T10:01:59.008Z,21.6
2019-05-30T10:03:09.140Z,22.1
2019-05-30T10:04:19.456Z,21.88
2019-05-30T10:05:29.706Z,24.5
2019-05-30T10:06:39.979Z,22.38
2019-05-30T10:07:50.912Z,22.77
2019-05-30T10:09:00.673Z,23.24
2019-05-30T10:10:10.808Z,23.42
2019-05-30T10:11:21.174Z,27.03
2019-05-30T10:12:32.557Z,25.88
2019-05-30T10:13:46.155Z,26.82
2019-05-30T10:14:53.252Z,27.55
2019-05-30T10:16:03.295Z,26.06
2019-05-30T10:17:13.545Z,26.93
2019-05-30T10:18:23.803Z,25.12
2019-05-30T10:19:34.066Z,24.58
2019-05-30T10:20:48.096Z,26.94
2019-05-30T10:21:54.635Z,24.66
2019-05-30T10:23:04.859Z,24.3
2019-05-30T10:24:15.128Z,25.88
2019-05-30T10:25:26.551Z,26.14
2019-05-30T10:26:36.743Z,28.24
2019-05-30T10:27:50.477Z,25.14
2019-05-30T10:28:58.442Z,25.29
2019-05-30T10:30:08.632Z,25.32
2019-05-30T10:31:18.902Z,28.43
2019-05-30T10:32:29.179Z,28.38
2019-05-30T10:33:39.428Z,24.84
2019-05-30T10:34:52.131Z,27.7
2019-05-30T10:36:01.054Z,26.08
2019-05-30T10:37:11.316Z,26.3
2019-05-30T10:38:21.504Z,28.08
2019-05-30T10:39:31.794Z,28.52
2019-05-30T10:40:43.218Z,27.63
2019-05-30T10:41:53.382Z,26.35
2019-05-30T10:44:13.869Z,25.53
2019-05-30T10:45:25.272Z,27.07
2019-05-30T10:46:35.474Z,27.98
2019-05-30T10:47:47.591Z,26.4
2019-05-30T10:48:56.962Z,28.18
2019-05-30T10:50:06.243Z,26.7
2019-05-30T10:51:16.415Z,27.53
2019-05-30T10:52:26.679Z,28.28
2019-05-30T10:53:37.881Z,26.71
2019-05-30T10:54:47.995Z,29.33
2019-05-30T10:55:58.508Z,26.64
2019-05-30T10:57:08.742Z,29.72
2019-05-30T10:58:18.964Z,28.52
2019-05-30T10:59:29.225Z,29.7
2019-05-30T11:00:39.457Z,28.6
2019-05-30T11:01:50.440Z,29.7
2019-05-30T11:02:59.867Z,29.94
2019-05-30T11:04:11.236Z,26.02
2019-05-30T11:05:22.591Z,30.18
2019-05-30T11:06:34.812Z,28.13
2019-05-30T11:08:03.763Z,26.46
2019-05-30T11:08:53.277Z,28.96
2019-05-30T11:10:04.608Z,30.63
2019-05-30T11:11:15.957Z,27.54
2019-05-30T11:12:26.199Z,27.4
2019-05-30T11:13:37.592Z,28.5
2019-05-30T11:16:00.213Z,26.57
2019-05-30T11:17:10.534Z,27.02
2019-05-30T11:18:20.657Z,30.27
2019-05-30T11:19:32.019Z,28.64
2019-05-30T11:20:42.266Z,27.04
2019-05-30T11:21:54.576Z,28.81
2019-05-30T11:23:03.781Z,27.06
2019-05-30T11:24:14.051Z,30.15
2019-05-30T11:25:24.240Z,26.6
2019-05-30T11:26:34.500Z,27.24
2019-05-30T11:27:44.761Z,28.86
2019-05-30T11:28:55.014Z,28.11
2019-05-30T11:30:05.101Z,27.85
2019-05-30T11:31:15.310Z,29.84
2019-05-30T11:32:25.520Z,27.8
2019-05-30T11:33:35.733Z,26.31
2019-05-30T11:34:45.928Z,26.95
2019-05-30T11:35:57.271Z,30.22
2019-05-30T11:37:19.345Z,27.2
2019-05-30T11:38:17.684Z,26.2
2019-05-30T11:39:29.023Z,28.07
2019-05-30T11:40:39.247Z,29.18
2019-05-30T11:41:49.511Z,27.16
2019-05-30T11:43:00.111Z,26.79
2019-05-30T11:44:11.122Z,25.56
2019-05-30T11:45:21.308Z,28.02
2019-05-30T11:46:31.407Z,27.3
2019-05-30T11:47:41.616Z,28.99
2019-05-30T11:48:51.813Z,27.94
2019-05-30T11:50:02.015Z,28.84
2019-05-30T11:51:12.408Z,26.38
2019-05-30T11:52:22.576Z,28.26
2019-05-30T11:53:32.637Z,30.31
2019-05-30T11:54:44.080Z,27.23
2019-05-30T11:55:54.288Z,31.21
2019-05-30T11:57:05.525Z,30.39
2019-05-30T11:58:20.032Z,30.43
2019-05-30T11:59:28.211Z,28.97
2019-05-30T12:00:38.411Z,29.13
2019-05-30T12:01:48.557Z,27.31
2019-05-30T12:02:59.119Z,27.54
2019-05-30T12:04:08.959Z,26.56
2019-05-30T12:05:19.174Z,30.42
2019-05-30T12:06:30.351Z,28.1
2019-05-30T12:07:40.583Z,28.6
2019-05-30T12:08:50.789Z,29.8
2019-05-30T12:10:01.479Z,29.53
2019-05-30T12:11:12.311Z,26.83
2019-05-30T12:12:22.539Z,28.07
2019-05-30T12:13:32.679Z,28.98
2019-05-30T12:14:44.050Z,26.67
2019-05-30T12:15:55.502Z,27.98
2019-05-30T12:17:04.506Z,27.87
2019-05-30T12:18:14.585Z,26.44
2019-05-30T12:19:24.788Z,30.38
2019-05-30T12:20:34.978Z,29.07
2019-05-30T12:21:45.223Z,30.03
2019-05-30T12:22:55.988Z,26.55
2019-05-30T12:24:05.575Z,29.95
2019-05-30T12:25:16.895Z,28.84
2019-05-30T12:26:28.002Z,29.02
2019-05-30T12:27:37.298Z,27.17
2019-05-30T12:28:47.471Z,26.64
2019-05-30T12:29:58.287Z,27.5
2019-05-30T12:31:07.963Z,27.95
2019-05-30T12:32:19.193Z,30.54
2019-05-30T12:33:30.498Z,27.33
2019-05-30T12:34:41.022Z,30.3
2019-05-30T12:35:52.463Z,28.3
2019-05-30T12:37:01.139Z,26.71
2019-05-30T12:38:11.318Z,30.15
2019-05-30T12:39:21.665Z,27.9
2019-05-30T12:40:32.788Z,26.91
2019-05-30T12:41:42.965Z,27.11
2019-05-30T12:42:58.019Z,28.96
2019-05-30T12:44:03.498Z,28.45
2019-05-30T12:45:13.557Z,30.18
2019-05-30T12:46:24.856Z,28.17
2019-05-30T12:47:35.049Z,28.51
2019-05-30T12:48:45.247Z,30.11
2019-05-30T12:49:57.208Z,27.44
2019-05-30T12:51:06.812Z,28.16
2019-05-30T12:52:16.934Z,27.55
2019-05-30T12:53:27.141Z,31.08
2019-05-30T12:54:37.427Z,31.18
2019-05-30T12:55:48.622Z,30.62
2019-05-30T12:56:58.821Z,28.83
2019-05-30T12:58:09.004Z,29.57
2019-05-30T12:59:19.178Z,28.65
2019-05-30T13:00:29.369Z,29.67
2019-05-30T13:01:39.550Z,29.95
2019-05-30T13:02:49.763Z,30.34
2019-05-30T13:04:01.231Z,29.77
2019-05-30T13:05:11.255Z,28.65
2019-05-30T13:06:21.454Z,27.99
2019-05-30T13:07:31.614Z,30.61
2019-05-30T13:08:41.880Z,31.49
2019-05-30T13:09:52.033Z,30.74
2019-05-30T13:11:03.907Z,30.02
2019-05-30T13:12:12.398Z,29.78
2019-05-30T13:13:22.615Z,27.55
2019-05-30T13:14:32.744Z,30.85
2019-05-30T13:15:42.928Z,31.29
2019-05-30T13:16:55.710Z,28.35
2019-05-30T13:18:04.379Z,29.29
2019-05-30T13:19:15.597Z,28.17
2019-05-30T13:20:25.794Z,30.63
2019-05-30T13:21:36.086Z,28.88
2019-05-30T13:22:46.194Z,30.46
2019-05-30T13:23:57.616Z,30.69
2019-05-30T13:25:06.888Z,29.67
2019-05-30T13:26:16.887Z,30.77
2019-05-30T13:27:28.072Z,29.34
2019-05-30T13:28:38.202Z,30.2
2019-05-30T13:29:48.448Z,31.8
2019-05-30T13:30:58.582Z,30.26
2019-05-30T13:33:20.060Z,28.53
2019-05-30T13:34:31.352Z,28.36
2019-05-30T13:35:41.533Z,28.7
2019-05-30T13:36:51.723Z,29.11
2019-05-30T13:38:03.251Z,28.37
2019-05-30T13:39:12.105Z,28.36
2019-05-30T13:40:25.786Z,27.68
2019-05-30T13:41:32.458Z,29.85
2019-05-30T13:42:42.643Z,27.98
2019-05-30T13:43:52.890Z,27.97
2019-05-30T13:46:13.224Z,32.16
2019-05-30T13:47:24.532Z,30.67
2019-05-30T13:48:34.689Z,32.03
2019-05-30T13:49:44.852Z,31.11
2019-05-30T13:50:55.035Z,28.24
2019-05-30T13:52:05.357Z,30.76
2019-05-30T13:53:15.485Z,29.12
2019-05-30T13:54:25.565Z,30.83
2019-05-30T13:55:36.944Z,27.57
2019-05-30T13:56:47.061Z,28.03
2019-05-30T13:57:57.267Z,29.02
2019-05-30T13:59:08.524Z,31.28
2019-05-30T14:00:19.851Z,31.73
2019-05-30T14:01:30.039Z,27.48
2019-05-30T14:02:41.344Z,27.93
2019-05-30T14:03:51.549Z,31.04
2019-05-30T14:05:02.359Z,30.17
2019-05-30T14:06:11.874Z,30.86
2019-05-30T14:07:22.253Z,29.36
2019-05-30T14:08:42.085Z,30.7
2019-05-30T14:09:42.400Z,31.7
2019-05-30T14:10:52.659Z,29.53
2019-05-30T14:12:02.761Z,30.24
2019-05-30T14:13:14.062Z,29.73
2019-05-30T14:14:24.255Z,27.8
2019-05-30T14:15:35.536Z,30.31
2019-05-30T14:16:45.723Z,28.25
2019-05-30T14:17:55.929Z,29.33
2019-05-30T14:19:12.614Z,31.29
2019-05-30T14:20:16.229Z,31.42
2019-05-30T14:21:26.412Z,30.24
2019-05-30T14:22:36.594Z,30.72
2019-05-30T14:23:46.772Z,27.97
2019-05-30T14:26:09.533Z,29.4
2019-05-30T14:27:18.417Z,30.79
2019-05-30T14:28:28.608Z,30.65
2019-05-30T14:29:38.783Z,27.85
2019-05-30T14:30:48.957Z,30.86
2019-05-30T14:31:59.195Z,31.91
2019-05-30T14:33:10.432Z,31.5
2019-05-30T14:34:20.605Z,30.6
2019-05-30T14:35:30.818Z,27.45
2019-05-30T14:36:41.034Z,31.4
2019-05-30T14:37:51.220Z,27.23
2019-05-30T14:39:02.760Z,27.85
2019-05-30T14:40:11.521Z,30.79
2019-05-30T14:41:21.689Z,30.24
2019-05-30T14:42:31.927Z,27.24
2019-05-30T14:43:42.047Z,27.59
2019-05-30T14:44:52.234Z,27.35
2019-05-30T14:46:02.412Z,28.81
2019-05-30T14:47:12.595Z,28.7
2019-05-30T14:48:22.770Z,31.11
2019-05-30T14:49:32.940Z,30.74
2019-05-30T14:50:43.120Z,29.94
2019-05-30T14:51:53.330Z,28.68
2019-05-30T14:53:04.756Z,30.17
2019-05-30T14:54:14.846Z,26.93
2019-05-30T14:55:24.968Z,26.65
2019-05-30T14:56:35.341Z,27.17
2019-05-30T14:57:45.333Z,30.64
2019-05-30T14:58:55.521Z,29.62
2019-05-30T15:00:07.562Z,30.17
2019-05-30T15:01:17.674Z,31.78
2019-05-30T15:02:27.234Z,31.49
2019-05-30T15:03:37.398Z,31.48
2019-05-30T15:04:48.657Z,28.08
2019-05-30T15:05:58.995Z,28.95
2019-05-30T15:07:09.364Z,28.31
2019-05-30T15:08:19.197Z,30.55
2019-05-30T15:09:29.397Z,29.01
2019-05-30T15:10:39.546Z,27.85
2019-05-30T15:11:49.777Z,31.64
2019-05-30T15:12:59.911Z,28.84
2019-05-30T15:14:10.994Z,29.14
2019-05-30T15:15:21.409Z,32.38
2019-05-30T15:16:31.563Z,31.55
2019-05-30T15:17:42.759Z,30.55
2019-05-30T15:18:52.929Z,31.58
2019-05-30T15:20:03.114Z,30.57
2019-05-30T15:21:14.611Z,29.06
2019-05-30T15:22:23.469Z,32.72
2019-05-30T15:23:34.752Z,32.4
2019-05-30T15:24:46.133Z,32.77
2019-05-30T15:25:56.250Z,29.7
2019-05-30T15:27:06.452Z,28.91
2019-05-30T15:28:17.717Z,29.49
2019-05-30T15:29:27.910Z,32.2
2019-05-30T15:30:38.085Z,31.99